createdAt,value
2019-03-28T00:01:19.984Z,14.20
2019-03-28T00:03:50.711Z,13.53
2019-03-28T00:06:21.441Z,13.53
2019-03-28T00:08:52.143Z,13.20
2019-03-28T00:11:23.062Z,13.63
2019-03-28T00:13:53.787Z,12.50
2019-03-28T00:16:24.639Z,13.70
2019-03-28T00:18:57.465Z,13.03
2019-03-28T00:21:27.951Z,13.10
2019-03-28T00:24:06.311Z,13.30
2019-03-28T00:26:37.108Z,13.03
2019-03-28T00:29:07.982Z,12.90
2019-03-28T00:31:38.796Z,13.27
2019-03-28T00:34:10.191Z,14.83
2019-03-28T00:36:41.174Z,13.90
2019-03-28T00:39:11.886Z,13.60
2019-03-28T00:41:42.695Z,13.50
2019-03-28T00:44:13.402Z,13.93
2019-03-28T00:46:44.158Z,14.43
2019-03-28T00:49:14.870Z,14.27
2019-03-28T00:51:45.737Z,14.67
2019-03-28T00:54:16.429Z,15.03
2019-03-28T00:56:47.738Z,15.80
2019-03-28T00:59:18.504Z,15.07
2019-03-28T01:01:49.345Z,15.70
2019-03-28T01:04:20.486Z,15.13
2019-03-28T01:06:51.196Z,14.60
2019-03-28T01:09:21.878Z,14.13
2019-03-28T01:11:52.615Z,15.17
2019-03-28T01:14:23.440Z,14.13
2019-03-28T01:16:54.154Z,14.00
2019-03-28T01:19:24.887Z,14.97
2019-03-28T01:21:55.607Z,14.50
2019-03-28T01:24:26.318Z,13.37
2019-03-28T01:26:58.750Z,15.40
2019-03-28T01:29:29.586Z,15.07
2019-03-28T01:32:00.390Z,15.23
2019-03-28T01:34:31.235Z,15.67
2019-03-28T01:37:01.949Z,15.33
2019-03-28T01:39:32.671Z,14.97
2019-03-28T01:42:03.398Z,15.27
2019-03-28T01:44:34.125Z,15.00
2019-03-28T01:47:04.864Z,15.20
2019-03-28T01:49:35.554Z,15.50
2019-03-28T01:52:06.276Z,14.97
2019-03-28T01:54:37.063Z,14.40
2019-03-28T01:57:11.352Z,13.70
2019-03-28T01:59:40.277Z,13.83
2019-03-28T02:02:10.984Z,14.80
2019-03-28T02:04:41.691Z,15.20
2019-03-28T02:07:12.431Z,14.87
2019-03-28T02:09:43.263Z,13.97
2019-03-28T02:12:14.018Z,15.07
2019-03-28T02:14:44.753Z,14.83
2019-03-28T02:17:15.498Z,15.23
2019-03-28T02:19:46.218Z,15.37
2019-03-28T02:22:17.328Z,14.33
2019-03-28T02:24:48.022Z,14.73
2019-03-28T02:27:23.891Z,14.50
2019-03-28T02:29:51.052Z,14.50
2019-03-28T02:32:21.981Z,14.80
2019-03-28T02:34:52.627Z,15.03
2019-03-28T02:37:23.405Z,15.43
2019-03-28T02:39:54.118Z,14.20
2019-03-28T02:42:24.859Z,13.73
2019-03-28T02:44:55.549Z,14.33
2019-03-28T02:47:26.344Z,15.07
2019-03-28T02:49:57.082Z,15.27
2019-03-28T02:52:27.824Z,14.00
2019-03-28T02:54:58.529Z,13.80
2019-03-28T02:57:40.866Z,14.37
2019-03-28T03:00:01.879Z,14.23
2019-03-28T03:02:32.740Z,14.33
2019-03-28T03:05:03.419Z,14.20
2019-03-28T03:07:34.235Z,14.00
2019-03-28T03:10:05.949Z,14.30
2019-03-28T03:12:36.835Z,13.97
2019-03-28T03:15:08.059Z,14.23
2019-03-28T03:17:38.819Z,13.57
2019-03-28T03:20:10.032Z,14.13
2019-03-28T03:22:40.798Z,14.27
2019-03-28T03:25:12.119Z,14.63
2019-03-28T03:27:57.124Z,14.73
2019-03-28T03:30:15.434Z,13.73
2019-03-28T03:32:46.702Z,14.77
2019-03-28T03:35:17.391Z,15.27
2019-03-28T03:37:48.171Z,14.90
2019-03-28T03:40:18.955Z,14.17
2019-03-28T03:42:50.016Z,14.50
2019-03-28T03:45:20.978Z,14.17
2019-03-28T03:47:51.739Z,15.40
2019-03-28T03:50:30.053Z,14.70
2019-03-28T03:53:00.800Z,14.43
2019-03-28T03:55:31.524Z,14.70
2019-03-28T03:58:15.531Z,14.30
2019-03-28T04:00:36.603Z,14.67
2019-03-28T04:03:07.635Z,14.33
2019-03-28T04:05:38.854Z,14.40
2019-03-28T04:08:09.728Z,15.10
2019-03-28T04:10:40.484Z,14.90
2019-03-28T04:13:11.348Z,14.73
2019-03-28T04:15:42.118Z,15.10
2019-03-28T04:18:13.768Z,17.63
2019-03-28T04:20:44.740Z,16.50
2019-03-28T04:23:15.536Z,16.07
2019-03-28T04:25:46.237Z,16.37
2019-03-28T04:28:30.690Z,17.47
2019-03-28T04:30:49.735Z,15.63
2019-03-28T04:33:22.238Z,16.33
2019-03-28T04:35:52.914Z,16.23
2019-03-28T04:38:24.554Z,16.77
2019-03-28T04:40:55.379Z,15.70
2019-03-28T04:43:26.094Z,16.33
2019-03-28T04:45:56.788Z,16.23
2019-03-28T04:48:27.510Z,17.50
2019-03-28T04:50:58.414Z,16.83
2019-03-28T04:53:29.692Z,17.13
2019-03-28T04:56:00.725Z,16.10
2019-03-28T04:58:43.826Z,17.83
2019-03-28T05:01:03.899Z,18.03
2019-03-28T05:03:34.614Z,17.87
2019-03-28T05:06:05.387Z,17.33
2019-03-28T05:08:37.881Z,16.43
2019-03-28T05:11:08.626Z,17.93
2019-03-28T05:13:39.334Z,19.17
2019-03-28T05:16:10.065Z,18.20
2019-03-28T05:18:40.952Z,18.70
2019-03-28T05:21:11.809Z,19.63
2019-03-28T05:23:42.531Z,20.07
2019-03-28T05:26:13.240Z,19.57
2019-03-28T05:28:56.637Z,19.57
2019-03-28T05:31:16.315Z,19.70
2019-03-28T05:33:47.127Z,19.63
2019-03-28T05:36:18.444Z,19.57
2019-03-28T05:38:49.251Z,19.07
2019-03-28T05:41:20.047Z,19.70
2019-03-28T05:43:50.926Z,20.70
2019-03-28T05:46:21.581Z,22.30
2019-03-28T05:48:52.358Z,21.40
2019-03-28T05:51:23.621Z,22.87
2019-03-28T05:53:56.412Z,22.67
2019-03-28T05:56:27.177Z,23.03
2019-03-28T05:59:09.902Z,22.70
2019-03-28T06:01:30.351Z,24.90
2019-03-28T06:04:01.116Z,23.83
2019-03-28T06:06:32.055Z,23.43
2019-03-28T06:09:02.919Z,22.20
2019-03-28T06:11:33.715Z,23.30
2019-03-28T06:14:04.509Z,21.90
2019-03-28T06:16:35.623Z,22.60
2019-03-28T06:19:06.353Z,21.33
2019-03-28T06:21:39.486Z,20.90
2019-03-28T06:24:09.472Z,20.80
2019-03-28T06:26:40.207Z,18.77
2019-03-28T06:29:22.876Z,19.23
2019-03-28T06:31:54.547Z,20.50
2019-03-28T06:34:15.627Z,19.87
2019-03-28T06:36:46.362Z,22.13
2019-03-28T06:39:17.324Z,20.90
2019-03-28T06:41:48.663Z,20.83
2019-03-28T06:44:19.600Z,21.07
2019-03-28T06:46:50.504Z,20.97
2019-03-28T06:49:21.335Z,20.73
2019-03-28T06:51:52.165Z,19.93
2019-03-28T06:54:24.299Z,20.03
2019-03-28T06:56:55.200Z,22.10
2019-03-28T06:59:36.535Z,23.93
2019-03-28T07:01:58.378Z,23.93
2019-03-28T07:04:30.227Z,22.97
2019-03-28T07:07:01.004Z,23.17
2019-03-28T07:09:31.739Z,24.00
2019-03-28T07:12:02.482Z,24.37
2019-03-28T07:14:33.342Z,22.80
2019-03-28T07:17:04.070Z,25.13
2019-03-28T07:19:34.786Z,24.10
2019-03-28T07:22:05.584Z,22.77
2019-03-28T07:24:36.357Z,23.87
2019-03-28T07:27:08.552Z,24.40
2019-03-28T07:29:50.137Z,24.77
2019-03-28T07:32:11.895Z,24.50
2019-03-28T07:34:42.741Z,23.83
2019-03-28T07:37:17.030Z,25.17
2019-03-28T07:39:47.750Z,22.47
2019-03-28T07:42:18.464Z,22.27
2019-03-28T07:44:49.227Z,23.47
2019-03-28T07:47:20.182Z,23.97
2019-03-28T07:49:51.251Z,24.60
2019-03-28T07:52:22.037Z,23.83
2019-03-28T07:54:53.870Z,26.30
2019-03-28T07:57:24.593Z,25.80
2019-03-28T08:00:03.986Z,27.10
2019-03-28T08:02:28.101Z,27.83
2019-03-28T08:05:01.378Z,26.90
2019-03-28T08:07:44.013Z,26.00
2019-03-28T08:10:03.612Z,26.70
2019-03-28T08:12:34.401Z,26.53
2019-03-28T08:15:06.734Z,25.80
2019-03-28T08:17:37.711Z,25.93
2019-03-28T08:20:10.912Z,26.93
2019-03-28T08:22:43.013Z,26.13
2019-03-28T08:25:14.344Z,26.03
2019-03-28T08:27:45.060Z,26.50
2019-03-28T08:30:19.658Z,25.37
2019-03-28T08:32:48.498Z,26.90
2019-03-28T08:35:19.275Z,26.70
2019-03-28T08:37:50.077Z,27.30
2019-03-28T08:40:35.323Z,25.47
2019-03-28T08:43:06.211Z,25.50
2019-03-28T08:45:37.197Z,25.27
2019-03-28T08:48:07.881Z,26.27
2019-03-28T08:50:39.002Z,24.63
2019-03-28T08:53:09.832Z,27.33
2019-03-28T08:55:40.766Z,27.73
2019-03-28T08:58:11.509Z,26.00
2019-03-28T09:00:51.619Z,26.53
2019-03-28T09:03:14.744Z,27.33
2019-03-28T09:05:45.650Z,27.20
2019-03-28T09:08:16.365Z,26.13
2019-03-28T09:10:47.337Z,25.17
2019-03-28T09:13:18.068Z,26.10
2019-03-28T09:15:48.823Z,25.23
2019-03-28T09:18:22.266Z,27.00
2019-03-28T09:20:53.083Z,28.03
2019-03-28T09:23:23.802Z,27.07
2019-03-28T09:25:54.550Z,25.67
2019-03-28T09:28:25.430Z,24.47
2019-03-28T09:30:56.399Z,25.37
2019-03-28T09:33:28.009Z,25.23
2019-03-28T09:35:59.007Z,25.33
2019-03-28T09:38:29.780Z,24.57
2019-03-28T09:41:00.520Z,25.40
2019-03-28T09:43:31.238Z,25.53
2019-03-28T09:46:02.099Z,24.80
2019-03-28T09:48:33.037Z,24.37
2019-03-28T09:51:03.888Z,23.07
2019-03-28T09:53:34.697Z,22.17
2019-03-28T09:56:05.456Z,22.00
2019-03-28T09:58:36.250Z,23.13
2019-03-28T10:01:07.000Z,22.67
2019-03-28T10:03:38.129Z,23.50
2019-03-28T10:06:08.943Z,21.53
2019-03-28T10:08:39.716Z,22.60
2019-03-28T10:11:10.613Z,20.97
2019-03-28T10:13:41.330Z,21.93
2019-03-28T10:16:12.087Z,22.87
2019-03-28T10:18:42.871Z,21.40
2019-03-28T10:21:13.790Z,21.47
2019-03-28T10:23:44.625Z,20.60
2019-03-28T10:26:15.449Z,21.57
2019-03-28T10:28:48.744Z,19.43
2019-03-28T10:31:19.916Z,19.33
2019-03-28T10:33:50.773Z,17.70
2019-03-28T10:36:21.546Z,18.30
2019-03-28T10:38:55.599Z,19.03
2019-03-28T10:41:26.392Z,18.20
2019-03-28T10:43:57.127Z,19.63
2019-03-28T10:46:27.890Z,18.90
2019-03-28T10:48:58.641Z,18.90
2019-03-28T10:51:29.503Z,20.20
2019-03-28T10:54:00.333Z,18.90
2019-03-28T10:56:32.519Z,19.23
2019-03-28T10:59:03.301Z,18.10
2019-03-28T11:01:48.136Z,17.27
2019-03-28T11:04:07.162Z,21.80
2019-03-28T11:06:38.350Z,19.37
2019-03-28T11:09:12.137Z,20.23
2019-03-28T11:11:43.156Z,18.13
2019-03-28T11:14:14.003Z,18.20
2019-03-28T11:16:48.105Z,18.03
2019-03-28T11:19:17.694Z,16.97
2019-03-28T11:21:48.631Z,16.70
2019-03-28T11:24:19.330Z,17.27
2019-03-28T11:26:50.126Z,16.93
2019-03-28T11:29:21.076Z,16.10
2019-03-28T11:31:54.554Z,15.67
2019-03-28T11:34:25.299Z,17.53
2019-03-28T11:36:56.136Z,18.37
2019-03-28T11:39:26.858Z,16.80
2019-03-28T11:42:00.412Z,16.13
2019-03-28T11:44:29.914Z,17.33
2019-03-28T11:47:00.669Z,16.23
2019-03-28T11:49:34.154Z,14.90
2019-03-28T11:52:05.007Z,15.80
2019-03-28T11:54:35.796Z,15.90
2019-03-28T11:57:06.774Z,16.40
2019-03-28T11:59:37.571Z,15.87
2019-03-28T12:02:19.810Z,16.10
2019-03-28T12:04:40.651Z,15.10
2019-03-28T12:07:11.397Z,14.93
2019-03-28T12:09:44.536Z,14.50
2019-03-28T12:12:15.335Z,14.37
2019-03-28T12:14:46.044Z,14.67
2019-03-28T12:17:16.797Z,14.90
2019-03-28T12:19:47.514Z,12.53
2019-03-28T12:22:18.258Z,11.83
2019-03-28T12:24:49.015Z,12.63
2019-03-28T12:27:19.823Z,11.10
2019-03-28T12:29:50.762Z,11.77
2019-03-28T12:32:21.519Z,11.40
2019-03-28T12:34:52.250Z,11.20
2019-03-28T12:37:23.055Z,10.80
2019-03-28T12:39:54.004Z,9.20
2019-03-28T12:42:24.835Z,8.37
2019-03-28T12:44:57.216Z,10.10
2019-03-28T12:47:41.274Z,8.57
2019-03-28T12:50:01.963Z,8.43
2019-03-28T12:52:33.740Z,6.73
2019-03-28T12:55:04.881Z,6.70
2019-03-28T12:57:35.691Z,7.43
2019-03-28T13:00:07.864Z,7.13
2019-03-28T13:02:38.702Z,6.50
2019-03-28T13:05:11.420Z,6.40
2019-03-28T13:07:42.207Z,5.17
2019-03-28T13:10:13.928Z,6.13
2019-03-28T13:12:44.913Z,6.40
2019-03-28T13:15:15.724Z,5.50
2019-03-28T13:17:46.557Z,6.40
2019-03-28T13:20:17.382Z,5.87
2019-03-28T13:22:48.152Z,5.40
2019-03-28T13:25:19.014Z,4.57
2019-03-28T13:27:49.699Z,4.77
2019-03-28T13:30:20.770Z,5.90
2019-03-28T13:32:51.439Z,6.27
2019-03-28T13:35:22.049Z,5.90
2019-03-28T13:37:52.731Z,5.30
2019-03-28T13:40:24.002Z,5.13
2019-03-28T13:42:54.692Z,6.23
2019-03-28T13:45:26.684Z,6.10
2019-03-28T13:47:57.292Z,5.77
2019-03-28T13:50:27.875Z,6.57
2019-03-28T13:52:58.559Z,5.43
2019-03-28T13:55:29.147Z,4.43
2019-03-28T13:57:59.820Z,6.63
2019-03-28T14:00:37.664Z,6.23
2019-03-28T14:03:08.745Z,6.10
2019-03-28T14:05:39.336Z,5.33
2019-03-28T14:08:10.222Z,5.80
2019-03-28T14:10:41.405Z,5.53
2019-03-28T14:13:11.968Z,5.43
2019-03-28T14:15:42.618Z,5.50
2019-03-28T14:18:13.223Z,6.27
2019-03-28T14:20:43.827Z,5.63
2019-03-28T14:23:14.516Z,5.50
2019-03-28T14:25:45.270Z,5.47
2019-03-28T14:28:15.875Z,5.37
2019-03-28T14:30:49.313Z,6.37
2019-03-28T14:33:20.162Z,6.60
2019-03-28T14:35:50.728Z,6.30
2019-03-28T14:38:21.467Z,6.73
2019-03-28T14:40:52.163Z,6.87
2019-03-28T14:43:22.957Z,6.93
2019-03-28T14:45:53.631Z,6.43
2019-03-28T14:48:24.300Z,6.87
2019-03-28T14:50:55.119Z,6.83
2019-03-28T14:53:25.777Z,7.03
2019-03-28T14:55:57.759Z,6.77
2019-03-28T14:58:29.809Z,7.30
2019-03-28T15:01:00.473Z,7.20
2019-03-28T15:03:31.315Z,7.57
2019-03-28T15:06:01.971Z,7.27
2019-03-28T15:08:34.929Z,6.87
2019-03-28T15:11:05.918Z,7.30
2019-03-28T15:13:55.376Z,7.30
2019-03-28T15:16:27.472Z,8.47
2019-03-28T15:18:58.174Z,7.07
2019-03-28T15:21:40.578Z,7.63
2019-03-28T15:24:11.304Z,7.40
2019-03-28T15:26:41.973Z,8.27
2019-03-28T15:29:12.822Z,8.93
2019-03-28T15:31:45.350Z,9.00
2019-03-28T15:34:15.978Z,8.23
2019-03-28T15:36:46.779Z,9.53
2019-03-28T15:39:17.468Z,8.60
2019-03-28T15:41:48.045Z,7.93
2019-03-28T15:44:18.905Z,6.90
2019-03-28T15:46:49.481Z,5.53
2019-03-28T15:49:20.094Z,6.10
2019-03-28T15:51:53.297Z,6.03
2019-03-28T15:54:23.940Z,6.13
2019-03-28T15:56:54.533Z,5.20
2019-03-28T15:59:25.205Z,4.83
2019-03-28T16:01:59.844Z,5.33
2019-03-28T16:04:29.824Z,5.67
2019-03-28T16:07:00.490Z,5.27
2019-03-28T16:09:49.893Z,5.53
2019-03-28T16:12:20.563Z,5.17
2019-03-28T16:14:51.248Z,5.43
2019-03-28T16:17:21.930Z,5.20
2019-03-28T16:19:52.718Z,5.60
2019-03-28T16:22:23.375Z,6.77
2019-03-28T16:24:53.992Z,6.30
2019-03-28T16:27:25.009Z,6.80
2019-03-28T16:29:55.617Z,7.60
2019-03-28T16:32:26.281Z,7.47
2019-03-28T16:34:58.670Z,7.20
2019-03-28T16:37:29.293Z,7.67
2019-03-28T16:39:59.971Z,7.30
2019-03-28T16:42:30.653Z,8.30
2019-03-28T16:45:01.239Z,8.10
2019-03-28T16:47:31.826Z,7.43
2019-03-28T16:50:03.155Z,7.50
2019-03-28T16:52:33.879Z,7.70
2019-03-28T16:55:04.953Z,7.17
2019-03-28T16:57:35.623Z,7.17
2019-03-28T17:00:10.141Z,6.53
2019-03-28T17:02:40.926Z,7.10
2019-03-28T17:05:15.690Z,7.30
2019-03-28T17:07:47.356Z,6.97
2019-03-28T17:10:41.534Z,6.93
2019-03-28T17:13:12.381Z,6.97
2019-03-28T17:15:43.030Z,7.47
2019-03-28T17:18:14.187Z,7.33
2019-03-28T17:20:44.884Z,7.27
2019-03-28T17:23:15.592Z,6.80
2019-03-28T17:25:46.428Z,7.80
2019-03-28T17:28:17.032Z,8.10
2019-03-28T17:30:47.795Z,7.87
2019-03-28T17:33:18.371Z,7.70
2019-03-28T17:35:49.206Z,7.93
2019-03-28T17:38:20.054Z,8.53
2019-03-28T17:40:50.643Z,8.20
2019-03-28T17:43:21.218Z,8.90
2019-03-28T17:45:52.859Z,9.00
2019-03-28T17:48:23.462Z,8.50
2019-03-28T17:50:54.092Z,9.03
2019-03-28T17:53:24.725Z,8.80
2019-03-28T17:55:55.604Z,8.93
2019-03-28T17:58:26.388Z,8.80
2019-03-28T18:00:57.259Z,10.50
2019-03-28T18:03:31.332Z,11.00
2019-03-28T18:06:00.457Z,10.57
2019-03-28T18:08:34.137Z,11.00
2019-03-28T18:11:04.766Z,10.30
2019-03-28T18:13:35.426Z,11.07
2019-03-28T18:16:06.145Z,11.40
2019-03-28T18:18:37.074Z,11.57
2019-03-28T18:21:07.767Z,12.83
2019-03-28T18:23:38.431Z,11.23
2019-03-28T18:26:09.229Z,12.77
2019-03-28T18:28:39.791Z,13.87
2019-03-28T18:31:11.627Z,13.40
2019-03-28T18:33:43.705Z,13.37
2019-03-28T18:36:14.318Z,13.57
2019-03-28T18:38:45.308Z,13.60
2019-03-28T18:41:15.954Z,13.20
2019-03-28T18:43:46.537Z,13.07
2019-03-28T18:46:17.381Z,14.00
2019-03-28T18:48:48.214Z,13.63
2019-03-28T18:51:18.873Z,14.07
2019-03-28T18:53:49.623Z,14.83
2019-03-28T18:56:20.337Z,14.93
2019-03-28T18:58:50.998Z,16.17
2019-03-28T19:01:21.681Z,16.73
2019-03-28T19:03:52.311Z,15.97
2019-03-28T19:06:23.017Z,16.40
2019-03-28T19:08:53.837Z,16.33
2019-03-28T19:11:24.657Z,16.60
2019-03-28T19:13:55.263Z,17.13
2019-03-28T19:16:25.966Z,17.60
2019-03-28T19:18:59.785Z,16.63
2019-03-28T19:21:29.101Z,16.93
2019-03-28T19:23:59.881Z,16.90
2019-03-28T19:26:30.487Z,17.30
2019-03-28T19:29:01.142Z,17.13
2019-03-28T19:31:31.786Z,16.47
2019-03-28T19:34:02.440Z,16.10
2019-03-28T19:36:34.512Z,16.80
2019-03-28T19:39:08.762Z,19.00
2019-03-28T19:41:38.993Z,19.03
2019-03-28T19:44:09.717Z,17.73
2019-03-28T19:46:40.873Z,19.13
2019-03-28T19:49:11.489Z,22.37
2019-03-28T19:51:42.340Z,21.53
2019-03-28T19:54:13.263Z,21.27
2019-03-28T19:56:43.927Z,22.67
2019-03-28T19:59:14.966Z,22.90
2019-03-28T20:01:45.770Z,23.30
2019-03-28T20:04:16.461Z,23.33
2019-03-28T20:06:48.806Z,27.63
2019-03-28T20:09:19.437Z,27.13
2019-03-28T20:11:50.106Z,26.37
2019-03-28T20:14:23.800Z,27.00
2019-03-28T20:16:54.482Z,27.00
2019-03-28T20:19:25.209Z,26.83
2019-03-28T20:21:59.674Z,27.93
2019-03-28T20:24:31.467Z,27.23
2019-03-28T20:27:02.291Z,25.63
2019-03-28T20:29:33.534Z,27.03
2019-03-28T20:32:04.468Z,25.37
2019-03-28T20:34:37.582Z,27.00
2019-03-28T20:37:11.640Z,29.20
2019-03-28T20:39:42.510Z,27.17
2019-03-28T20:42:13.355Z,25.90
2019-03-28T20:44:44.693Z,24.90
2019-03-28T20:47:15.414Z,24.27
2019-03-28T20:49:46.799Z,23.43
2019-03-28T20:52:19.059Z,24.97
2019-03-28T20:54:52.452Z,25.23
2019-03-28T20:57:26.320Z,29.03
2019-03-28T20:59:57.030Z,30.17
2019-03-28T21:02:27.789Z,28.53
2019-03-28T21:04:58.571Z,26.67
2019-03-28T21:07:31.149Z,25.30
2019-03-28T21:10:01.744Z,23.70
2019-03-28T21:12:33.245Z,24.00
2019-03-28T21:15:04.594Z,24.47
2019-03-28T21:17:35.363Z,24.90
2019-03-28T21:20:06.357Z,27.20
2019-03-28T21:22:37.337Z,26.57
2019-03-28T21:25:07.985Z,26.30
2019-03-28T21:27:38.620Z,26.77
2019-03-28T21:30:12.108Z,26.10
2019-03-28T21:32:54.826Z,24.80
2019-03-28T21:35:15.050Z,28.67
2019-03-28T21:37:45.765Z,30.20
2019-03-28T21:40:16.756Z,28.97
2019-03-28T21:42:47.470Z,28.03
2019-03-28T21:45:18.151Z,29.40
2019-03-28T21:47:48.763Z,28.60
2019-03-28T21:50:19.531Z,28.43
2019-03-28T21:52:50.213Z,28.43
2019-03-28T21:55:20.999Z,28.33
2019-03-28T21:57:51.820Z,29.30
2019-03-28T22:00:22.590Z,30.27
2019-03-28T22:02:53.251Z,30.57
2019-03-28T22:05:23.839Z,31.43
2019-03-28T22:07:54.467Z,29.77
2019-03-28T22:10:25.270Z,29.30
2019-03-28T22:12:56.083Z,29.97
2019-03-28T22:15:26.897Z,29.27
2019-03-28T22:17:57.521Z,29.23
2019-03-28T22:20:28.162Z,28.97
2019-03-28T22:22:58.945Z,28.70
2019-03-28T22:25:29.623Z,30.00
2019-03-28T22:28:00.394Z,30.73
2019-03-28T22:30:31.065Z,31.13
2019-03-28T22:33:01.730Z,30.40
2019-03-28T22:35:32.470Z,30.50
2019-03-28T22:38:03.209Z,31.80
2019-03-28T22:40:34.201Z,31.27
2019-03-28T22:43:05.002Z,30.03
2019-03-28T22:45:35.623Z,31.80
2019-03-28T22:48:11.043Z,30.90
2019-03-28T22:50:39.082Z,30.03
2019-03-28T22:53:09.779Z,31.63
2019-03-28T22:55:40.418Z,30.07
2019-03-28T22:58:11.207Z,29.17
2019-03-28T23:00:45.699Z,31.23
2019-03-28T23:03:19.144Z,31.77
2019-03-28T23:05:49.895Z,31.30
2019-03-28T23:08:23.373Z,32.87
2019-03-28T23:10:54.287Z,30.70
2019-03-28T23:13:24.968Z,31.37
2019-03-28T23:15:55.606Z,29.60
2019-03-28T23:18:29.429Z,32.27
2019-03-28T23:21:00.032Z,33.50
2019-03-28T23:23:31.976Z,32.70
2019-03-28T23:26:02.627Z,32.93
2019-03-28T23:28:33.419Z,32.97
2019-03-28T23:31:04.033Z,33.83
2019-03-28T23:33:34.800Z,33.53
2019-03-28T23:36:06.823Z,34.50
2019-03-28T23:38:37.663Z,34.23
2019-03-28T23:41:10.672Z,32.23
2019-03-28T23:43:41.454Z,36.40
2019-03-28T23:46:14.129Z,33.90
2019-03-28T23:48:44.820Z,33.20
2019-03-28T23:51:15.436Z,33.23
2019-03-28T23:53:46.129Z,34.10
2019-03-28T23:56:16.741Z,32.57
2019-03-28T23:58:47.356Z,34.53
